Time;durP1;ratioP1;P1;durP2;ratioP2;P2;SDS_P1;SDS_P2;PMS_P1;PMS_P2;Temp;Humidity;BMP_temperature;BMP_pressure;BME280_temperature;BME280_humidity;BME280_pressure;Samples;Min_cycle;Max_cycle;Signal;HPM_P1;HPM_P2
2021/03/15 00:02:22;;;;;;;0.98;0.73;;;;;;;6.77;72.26;99097.06;4993404;28;20057;-86
2021/03/15 00:04:48;;;;;;;2.30;1.00;;;;;;;6.73;72.60;99103.38;4991418;28;20058;-86
2021/03/15 00:07:14;;;;;;;1.20;0.77;;;;;;;6.71;72.65;99099.16;4992406;28;20054;-87
2021/03/15 00:09:40;;;;;;;2.22;0.80;;;;;;;6.68;72.87;99102.78;4993300;28;20515;-87
2021/03/15 00:12:08;;;;;;;1.65;0.80;;;;;;;6.66;72.90;99091.56;4992683;28;20050;-87
2021/03/15 00:14:34;;;;;;;2.38;0.90;;;;;;;6.63;72.83;99096.94;4992553;28;20050;-87
2021/03/15 00:17:00;;;;;;;3.38;0.90;;;;;;;6.61;72.90;99094.41;4995550;28;20493;-87
2021/03/15 00:19:27;;;;;;;1.63;1.00;;;;;;;6.60;73.38;99097.09;4995940;28;20061;-87
2021/03/15 00:21:53;;;;;;;2.10;0.93;;;;;;;6.58;73.17;99097.16;4995816;28;20050;-87
2021/03/15 00:24:19;;;;;;;2.13;0.90;;;;;;;6.57;73.67;99090.25;4991952;28;20057;-87
2021/03/15 00:26:45;;;;;;;2.03;1.30;;;;;;;6.57;73.66;99094.63;4977144;28;20051;-87
2021/03/15 00:29:11;;;;;;;2.55;1.50;;;;;;;6.56;73.32;99091.19;4975724;28;20058;-87
2021/03/15 00:31:37;;;;;;;3.70;1.48;;;;;;;6.58;73.56;99088.50;4977106;28;20047;-86
2021/03/15 00:34:04;;;;;;;4.90;1.80;;;;;;;6.57;73.98;99077.19;4977850;28;20042;-87
2021/03/15 00:36:30;;;;;;;3.17;1.50;;;;;;;6.59;73.88;99079.72;4977249;28;20062;-86
2021/03/15 00:38:56;;;;;;;4.28;1.95;;;;;;;6.58;74.01;99076.25;4975747;28;20054;-86
2021/03/15 00:41:22;;;;;;;6.00;2.00;;;;;;;6.58;74.16;99078.88;4977077;28;20391;-86
2021/03/15 00:43:48;;;;;;;4.45;2.15;;;;;;;6.58;74.10;99075.44;4979140;28;20059;-87
2021/03/15 00:46:14;;;;;;;3.83;1.60;;;;;;;6.57;74.02;99071.94;4996746;28;20394;-86
2021/03/15 00:48:41;;;;;;;3.47;1.98;;;;;;;6.55;74.19;99071.19;4994882;28;20054;-86
2021/03/15 00:51:07;;;;;;;3.22;2.05;;;;;;;6.55;74.23;99078.19;4995336;28;20412;-86
2021/03/15 00:53:33;;;;;;;2.75;1.67;;;;;;;6.55;74.30;99071.19;4994415;28;20050;-86
2021/03/15 00:55:59;;;;;;;3.05;1.85;;;;;;;6.54;74.28;99068.66;4975543;28;20051;-86
2021/03/15 00:58:25;;;;;;;5.53;1.80;;;;;;;6.53;74.36;99070.41;4975314;28;20047;-86
2021/03/15 01:00:51;;;;;;;2.33;1.58;;;;;;;6.52;74.26;99073.97;4975599;28;20055;-86
2021/03/15 01:03:18;;;;;;;4.05;1.83;;;;;;;6.52;74.13;99068.72;4975536;28;20499;-86
2021/03/15 01:05:47;;;;;;;1.83;1.67;;;;;;;6.49;73.91;99061.03;4990216;28;20094;-86
2021/03/15 01:08:14;;;;;;;2.15;1.60;;;;;;;6.49;74.15;99061.03;4994906;28;20050;-86
2021/03/15 01:10:43;;;;;;;2.72;1.65;;;;;;;6.47;74.01;99058.50;4995005;28;20055;-86
2021/03/15 01:13:14;;;;;;;3.47;2.00;;;;;;;6.45;74.06;99064.72;4995071;28;20141;-86
2021/03/15 01:15:41;;;;;;;1.73;1.52;;;;;;;6.42;73.90;99060.50;4977694;28;20043;-86
2021/03/15 01:18:08;;;;;;;1.73;1.55;;;;;;;6.39;74.37;99052.81;4975284;28;20054;-86
2021/03/15 01:20:35;;;;;;;2.97;1.80;;;;;;;6.36;74.19;99053.00;4975306;28;20097;-86
2021/03/15 01:23:02;;;;;;;3.22;2.10;;;;;;;6.33;74.34;99064.47;4975288;28;20421;-87
2021/03/15 01:25:33;;;;;;;3.95;2.22;;;;;;;6.29;74.18;99056.84;4974539;28;20050;-86
2021/03/15 01:28:00;;;;;;;1.80;1.67;;;;;;;6.28;74.45;99057.75;4975418;28;20054;-87
2021/03/15 01:30:29;;;;;;;2.95;1.95;;;;;;;6.25;74.82;99058.78;4981302;28;20405;-86
2021/03/15 01:32:57;;;;;;;3.28;1.90;;;;;;;6.24;74.79;99050.06;4994523;28;20416;-86
2021/03/15 01:35:24;;;;;;;2.55;1.95;;;;;;;6.23;74.99;99051.00;4992765;28;20046;-86
2021/03/15 01:37:51;;;;;;;4.82;2.22;;;;;;;6.23;74.70;99055.38;4994356;28;20046;-86
2021/03/15 01:40:18;;;;;;;6.28;2.20;;;;;;;6.22;74.98;99043.22;4994366;28;20412;-86
2021/03/15 01:42:45;;;;;;;3.00;1.88;;;;;;;6.22;74.99;99046.69;4994340;28;20539;-86
2021/03/15 01:45:11;;;;;;;4.35;2.10;;;;;;;6.23;75.08;99042.31;4994314;28;20042;-86
2021/03/15 01:47:39;;;;;;;3.88;2.20;;;;;;;6.23;75.13;99034.47;4993827;28;20501;-86
2021/03/15 01:50:07;;;;;;;3.78;2.38;;;;;;;6.23;75.05;99029.22;4994025;28;20050;-86
2021/03/15 01:52:35;;;;;;;2.67;2.33;;;;;;;6.23;75.04;99026.63;4995527;28;20058;-86
2021/03/15 01:55:03;;;;;;;5.65;2.28;;;;;;;6.22;75.11;99025.78;4982895;28;20382;-86
2021/03/15 01:57:29;;;;;;;2.85;2.40;;;;;;;6.23;75.21;99022.25;4975699;28;20062;-86
2021/03/15 01:59:56;;;;;;;4.28;2.40;;;;;;;6.23;75.03;99022.25;4974649;28;20481;-86
2021/03/15 02:02:23;;;;;;;3.38;2.50;;;;;;;6.24;75.23;99015.25;4975971;28;20488;-87
2021/03/15 02:04:50;;;;;;;3.60;2.92;;;;;;;6.26;75.38;99010.78;4981069;28;20053;-87
2021/03/15 02:07:25;;;;;;;3.78;3.15;;;;;;;6.27;75.44;99011.66;4994817;28;20057;-86
2021/03/15 02:09:52;;;;;;;4.65;2.97;;;;;;;6.30;75.39;99011.47;4993390;28;20058;-87
2021/03/15 02:12:34;;;;;;;5.85;3.25;;;;;;;6.31;75.60;99010.56;4994911;28;20053;-87
2021/03/15 02:15:28;;;;;;;4.05;2.78;;;;;;;6.33;75.37;99006.94;4993108;28;20057;-87
2021/03/15 02:18:03;;;;;;;5.05;2.97;;;;;;;6.38;75.53;98998.84;4993521;28;20409;-87
2021/03/15 02:20:39;;;;;;;4.63;2.97;;;;;;;6.42;75.33;98996.94;4993604;28;20151;-87
2021/03/15 02:23:28;;;;;;;3.65;3.17;;;;;;;6.44;75.11;98997.69;4990525;28;20054;-87
2021/03/15 02:26:12;;;;;;;3.50;2.90;;;;;;;6.48;75.40;98991.38;4994240;28;20489;-87
2021/03/15 02:29:07;;;;;;;4.13;3.08;;;;;;;6.51;75.16;98996.47;4993249;28;20046;-87
2021/03/15 02:32:04;;;;;;;7.35;3.28;;;;;;;6.52;75.10;98992.91;4993515;28;20113;-87
2021/03/15 02:35:06;;;;;;;6.20;3.20;;;;;;;6.56;74.93;98986.59;4976072;28;20054;-87
2021/03/15 02:38:11;;;;;;;4.40;3.22;;;;;;;6.58;75.05;98984.72;4973520;28;20532;-87
2021/03/15 02:40:44;;;;;;;3.40;2.95;;;;;;;6.61;74.72;98984.56;4973828;28;20051;-87
2021/03/15 02:43:20;;;;;;;4.50;3.13;;;;;;;6.63;74.94;98985.34;4979858;28;20046;-87
2021/03/15 02:45:50;;;;;;;4.20;3.40;;;;;;;6.68;75.20;98986.84;4993048;28;20047;-87
2021/03/15 02:48:18;;;;;;;5.47;3.40;;;;;;;6.71;75.71;98984.09;4992946;28;20133;-87
2021/03/15 02:50:46;;;;;;;7.25;4.03;;;;;;;6.73;75.28;98979.63;4994155;28;20062;-87
2021/03/15 02:53:17;;;;;;;6.10;4.20;;;;;;;6.74;75.05;98979.56;4991470;28;20080;-87
2021/03/15 02:55:48;;;;;;;6.47;4.10;;;;;;;6.78;75.14;98988.06;4993165;28;20053;-87
2021/03/15 02:58:16;;;;;;;5.70;4.50;;;;;;;6.80;75.28;98975.72;4974048;28;20055;-87
2021/03/15 03:00:43;;;;;;;6.53;4.53;;;;;;;6.84;75.42;98979.88;4974356;28;20065;-87
2021/03/15 03:03:11;;;;;;;6.78;4.97;;;;;;;6.86;75.24;98980.66;4974140;28;20077;-87
2021/03/15 03:05:38;;;;;;;6.63;5.00;;;;;;;6.89;75.18;98984.88;4991117;28;20046;-87
2021/03/15 03:08:21;;;;;;;7.03;5.70;;;;;;;6.91;75.11;98981.25;4993025;28;20137;-87
2021/03/15 03:10:50;;;;;;;8.05;5.93;;;;;;;6.93;75.15;98975.06;4994367;28;20062;-87
2021/03/15 03:13:22;;;;;;;8.32;5.90;;;;;;;6.93;74.71;98977.69;4993456;28;20412;-87
2021/03/15 03:15:50;;;;;;;7.85;5.68;;;;;;;6.96;74.91;98969.69;4973369;28;20502;-87
2021/03/15 03:18:20;;;;;;;8.68;5.72;;;;;;;6.96;74.77;98977.53;4973098;28;20050;-87
2021/03/15 03:20:51;;;;;;;6.68;5.82;;;;;;;6.97;75.01;98977.44;4973522;28;20055;-87
2021/03/15 03:23:19;;;;;;;9.02;6.32;;;;;;;6.99;75.10;98966.91;4973374;28;20413;-87
2021/03/15 03:25:46;;;;;;;9.70;6.63;;;;;;;6.99;74.87;98969.53;4973517;28;20432;-87
2021/03/15 03:28:15;;;;;;;10.45;6.82;;;;;;;6.98;74.74;98965.19;5022463;23;20408;-87
2021/03/15 03:30:42;;;;;;;10.65;6.90;;;;;;;6.99;75.06;98965.13;4992745;28;20054;-87
2021/03/15 03:33:09;;;;;;;8.48;5.63;;;;;;;6.99;75.01;98959.88;4992642;28;20516;-87
2021/03/15 03:35:35;;;;;;;8.13;6.05;;;;;;;7.00;75.04;98958.13;4992127;28;20458;-87
2021/03/15 03:38:02;;;;;;;10.98;6.00;;;;;;;6.99;74.67;98962.50;4992720;28;20050;-86
2021/03/15 03:40:29;;;;;;;6.80;6.10;;;;;;;6.99;74.99;98959.06;4993984;28;20058;-86
2021/03/15 03:42:55;;;;;;;11.13;6.03;;;;;;;6.99;75.04;98961.66;4992516;28;20058;-87
2021/03/15 03:45:22;;;;;;;10.23;6.50;;;;;;;6.98;74.85;98965.19;4992169;28;20050;-86
2021/03/15 03:47:49;;;;;;;8.57;6.82;;;;;;;6.97;74.90;98964.38;4992744;28;20061;-88
2021/03/15 03:50:20;;;;;;;8.63;6.57;;;;;;;6.95;74.74;98974.06;4996014;28;20054;-88
2021/03/15 03:53:02;;;;;;;9.73;7.53;;;;;;;6.91;74.33;98970.78;4995628;28;20050;-87
2021/03/15 03:55:41;;;;;;;13.40;8.82;;;;;;;6.93;74.58;98972.47;4994635;28;20481;-88
2021/03/15 03:58:12;;;;;;;11.88;8.63;;;;;;;6.93;75.10;98980.31;4996002;28;20054;-89
2021/03/15 04:00:39;;;;;;;10.80;8.77;;;;;;;6.93;75.01;98985.53;4997501;28;20054;-87
2021/03/15 04:03:17;;;;;;;13.30;8.85;;;;;;;6.90;74.53;98984.78;4997212;28;20527;-87
2021/03/15 04:05:50;;;;;;;10.55;7.75;;;;;;;6.90;74.72;98987.41;4995540;28;20053;-87
2021/03/15 04:08:22;;;;;;;10.07;7.63;;;;;;;6.90;74.82;98997.03;4995861;28;20054;-87
2021/03/15 04:10:50;;;;;;;8.77;6.82;;;;;;;6.91;74.71;98996.94;4996342;28;20122;-87
2021/03/15 04:13:19;;;;;;;9.95;7.60;;;;;;;6.89;74.99;98996.16;4996204;28;20057;-87
2021/03/15 04:15:48;;;;;;;11.25;7.90;;;;;;;6.88;74.92;99010.19;4995697;28;20054;-87
2021/03/15 04:18:16;;;;;;;14.43;8.25;;;;;;;6.86;74.65;99006.81;4995745;28;20481;-87
2021/03/15 04:20:44;;;;;;;10.43;7.57;;;;;;;6.84;74.99;99002.59;4997096;28;20046;-86
2021/03/15 04:23:16;;;;;;;8.85;7.22;;;;;;;6.83;75.13;99013.97;4995705;28;20046;-86
2021/03/15 04:25:45;;;;;;;9.82;7.45;;;;;;;6.82;75.10;99014.91;4995277;28;20054;-86
2021/03/15 04:28:12;;;;;;;10.13;7.32;;;;;;;6.81;75.30;99016.69;4995406;28;20054;-86
2021/03/15 04:30:41;;;;;;;10.18;7.43;;;;;;;6.82;75.34;99018.38;4995356;28;20489;-85
2021/03/15 04:33:07;;;;;;;9.80;7.20;;;;;;;6.82;75.44;99017.50;4995619;28;20050;-85
2021/03/15 04:35:35;;;;;;;8.88;7.03;;;;;;;6.82;75.35;99022.75;4995560;28;20449;-86
2021/03/15 04:38:06;;;;;;;8.95;7.38;;;;;;;6.81;75.32;99024.53;4995228;28;20512;-86
2021/03/15 04:40:34;;;;;;;9.32;6.72;;;;;;;6.83;75.49;99025.28;4996872;28;20136;-87
2021/03/15 04:43:01;;;;;;;9.57;6.45;;;;;;;6.83;75.21;99027.91;4995534;28;20053;-87
2021/03/15 04:45:32;;;;;;;8.55;6.53;;;;;;;6.83;75.46;99027.03;4996018;28;20055;-89
2021/03/15 04:48:00;;;;;;;10.38;7.22;;;;;;;6.83;75.41;99027.03;4995460;28;20046;-88
2021/03/15 04:50:28;;;;;;;10.30;8.15;;;;;;;6.85;75.38;99027.81;4995363;28;20057;-88
2021/03/15 04:52:56;;;;;;;10.77;7.43;;;;;;;6.85;75.58;99026.06;4996649;28;20054;-88
2021/03/15 04:55:25;;;;;;;10.60;7.07;;;;;;;6.87;75.78;99028.56;4996124;28;20051;-88
2021/03/15 04:57:55;;;;;;;9.93;6.53;;;;;;;6.87;75.46;99037.28;4994877;28;20134;-89
2021/03/15 05:00:22;;;;;;;8.88;6.88;;;;;;;6.89;75.40;99037.19;4996346;28;20398;-88
2021/03/15 05:02:50;;;;;;;8.25;6.68;;;;;;;6.89;75.38;99035.41;4995186;28;20389;-89
2021/03/15 05:05:17;;;;;;;8.27;6.13;;;;;;;6.90;75.29;99037.13;4994285;28;20053;-88
2021/03/15 05:07:46;;;;;;;9.48;6.95;;;;;;;6.89;75.28;99038.03;4995873;28;20058;-89
2021/03/15 05:10:14;;;;;;;10.27;7.53;;;;;;;6.89;75.25;99038.03;4995195;28;20054;-89
2021/03/15 05:12:41;;;;;;;12.02;7.40;;;;;;;6.89;75.01;99038.03;4994824;28;20050;-88
2021/03/15 05:15:10;;;;;;;13.63;8.60;;;;;;;6.88;74.86;99036.34;4994467;28;20054;-88
2021/03/15 05:17:37;;;;;;;13.63;9.43;;;;;;;6.87;74.97;99045.13;4996067;28;20054;-88
2021/03/15 05:20:07;;;;;;;12.82;8.25;;;;;;;6.86;74.89;99051.28;4994919;28;20125;-88
2021/03/15 05:22:36;;;;;;;12.45;7.88;;;;;;;6.85;74.99;99049.59;4994968;28;20440;-88
2021/03/15 05:25:05;;;;;;;9.98;7.18;;;;;;;6.85;75.18;99048.75;4994363;28;20050;-88
2021/03/15 05:27:33;;;;;;;9.52;7.40;;;;;;;6.85;75.28;99056.59;4994372;28;20516;-89
2021/03/15 05:30:05;;;;;;;10.15;6.70;;;;;;;6.85;75.00;99051.38;4994821;28;20049;-88
2021/03/15 05:32:32;;;;;;;10.07;5.78;;;;;;;6.86;75.40;99059.13;4996207;28;20050;-88
2021/03/15 05:35:00;;;;;;;6.95;4.70;;;;;;;6.85;75.31;99059.22;4993890;28;20050;-86
2021/03/15 05:37:28;;;;;;;8.23;5.00;;;;;;;6.83;75.25;99048.81;4995386;28;20085;-86
2021/03/15 05:40:11;;;;;;;8.00;4.50;;;;;;;6.85;75.10;99060.06;4995381;28;20137;-87
2021/03/15 05:42:50;;;;;;;5.82;4.10;;;;;;;6.84;75.00;99060.97;4995529;28;20077;-86
2021/03/15 05:45:47;;;;;;;8.18;4.53;;;;;;;6.83;74.93;99061.03;4993543;28;20050;-86
2021/03/15 05:48:29;;;;;;;9.20;4.38;;;;;;;6.84;74.99;99063.59;4994344;28;20470;-87
2021/03/15 05:51:14;;;;;;;7.70;4.90;;;;;;;6.88;75.32;99067.72;4994142;28;20094;-87
2021/03/15 05:53:47;;;;;;;10.48;4.50;;;;;;;6.87;75.05;99066.06;4993635;28;20054;-84
2021/03/15 05:56:52;;;;;;;6.68;3.92;;;;;;;6.86;74.65;99064.38;4994036;28;20468;-87
2021/03/15 05:59:34;;;;;;;8.35;3.95;;;;;;;6.90;75.22;99065.91;4993937;28;20054;-86
2021/03/15 06:02:19;;;;;;;7.20;4.03;;;;;;;6.87;74.57;99063.44;4994775;28;20057;-86
2021/03/15 06:05:06;;;;;;;5.10;4.00;;;;;;;6.92;75.43;99068.44;4992946;28;20050;-88
2021/03/15 06:07:36;;;;;;;8.93;3.45;;;;;;;6.92;75.57;99065.81;4994988;28;20057;-87
2021/03/15 06:10:07;;;;;;;10.07;4.55;;;;;;;6.93;75.61;99064.03;4994914;28;20493;-88
2021/03/15 06:12:38;;;;;;;7.50;4.72;;;;;;;6.91;75.49;99070.19;4994064;28;20058;-88
2021/03/15 06:15:05;;;;;;;13.38;6.00;;;;;;;6.93;75.36;99070.13;4993319;28;20047;-88
2021/03/15 06:17:32;;;;;;;12.80;6.25;;;;;;;6.95;75.53;99067.44;4993422;28;20057;-86
2021/03/15 06:19:59;;;;;;;13.25;7.45;;;;;;;6.96;75.68;99067.34;4993636;28;20078;-86
2021/03/15 06:22:27;;;;;;;13.27;8.52;;;;;;;6.97;75.42;99062.94;4994093;28;20053;-86
2021/03/15 06:24:54;;;;;;;15.07;8.40;;;;;;;6.98;75.19;99062.00;4993545;28;20382;-86
2021/03/15 06:27:21;;;;;;;12.57;7.03;;;;;;;6.98;75.01;99060.25;4993413;28;20057;-86
2021/03/15 06:29:47;;;;;;;10.35;5.82;;;;;;;6.97;74.67;99066.41;4993140;28;20460;-86
2021/03/15 06:32:15;;;;;;;9.80;5.45;;;;;;;6.95;74.69;99065.63;4994381;28;20054;-88
2021/03/15 06:34:43;;;;;;;7.90;4.95;;;;;;;6.93;74.87;99064.03;4993099;28;20057;-88
2021/03/15 06:37:12;;;;;;;9.90;5.72;;;;;;;6.90;74.83;99073.75;4993558;28;20046;-88
2021/03/15 06:39:40;;;;;;;9.60;5.65;;;;;;;6.89;75.18;99073.81;4994530;28;20046;-88
2021/03/15 06:42:09;;;;;;;9.38;5.13;;;;;;;6.89;75.31;99079.06;4993910;28;20050;-87
2021/03/15 06:44:35;;;;;;;7.72;4.97;;;;;;;6.89;75.72;99082.50;4994360;28;20053;-87
2021/03/15 06:47:01;;;;;;;11.48;5.68;;;;;;;6.91;76.26;99082.41;4994490;28;20054;-87
2021/03/15 06:49:30;;;;;;;9.40;5.35;;;;;;;6.94;76.14;99089.25;4993156;28;20469;-87
2021/03/15 06:52:03;;;;;;;10.02;6.32;;;;;;;6.94;75.81;99079.66;4994024;28;20054;-87
2021/03/15 06:54:29;;;;;;;8.90;5.38;;;;;;;6.98;76.03;99099.50;4994195;28;20053;-86
2021/03/15 06:57:20;;;;;;;10.02;6.40;;;;;;;6.97;75.53;99095.19;4993150;28;20065;-86
2021/03/15 06:59:54;;;;;;;12.95;6.10;;;;;;;7.01;75.67;99104.56;4992769;28;20057;-86
2021/03/15 07:02:29;;;;;;;12.60;6.97;;;;;;;7.04;75.61;99098.34;4994038;28;20096;-86
2021/03/15 07:05:16;;;;;;;14.88;9.38;;;;;;;7.03;75.65;99104.50;4992667;28;20054;-86
2021/03/15 07:07:53;;;;;;;17.75;11.63;;;;;;;7.06;75.60;99101.69;4993130;28;20061;-86
2021/03/15 07:10:26;;;;;;;21.40;13.05;;;;;;;7.07;75.53;99108.66;4993076;28;20062;-86
2021/03/15 07:13:15;;;;;;;25.13;15.43;;;;;;;7.07;75.10;99111.25;4992972;28;20059;-86
2021/03/15 07:15:43;;;;;;;20.35;12.27;;;;;;;7.13;75.95;99112.69;4994007;28;20051;-87
2021/03/15 07:18:14;;;;;;;20.48;12.60;;;;;;;7.14;76.02;99115.22;4992671;28;20054;-87
2021/03/15 07:20:58;;;;;;;23.02;12.38;;;;;;;7.14;75.88;99110.00;4993111;28;20100;-87
2021/03/15 07:23:44;;;;;;;18.50;11.77;;;;;;;7.18;75.65;99118.53;4993138;28;20057;-87
2021/03/15 07:26:18;;;;;;;21.13;11.35;;;;;;;7.23;75.85;99118.28;4977536;28;20405;-87
2021/03/15 07:28:46;;;;;;;18.48;9.90;;;;;;;7.28;76.38;99118.88;4978160;28;20051;-88
2021/03/15 07:31:23;;;;;;;17.48;8.10;;;;;;;7.28;75.57;99119.72;4978538;28;20046;-87
2021/03/15 07:33:55;;;;;;;10.80;7.57;;;;;;;7.35;76.29;99115.00;4983055;28;20129;-87
2021/03/15 07:36:28;;;;;;;18.67;7.13;;;;;;;7.36;75.63;99124.53;4997803;28;20052;-88
2021/03/15 07:38:56;;;;;;;16.02;6.25;;;;;;;7.39;76.18;99132.25;4996688;28;20460;-88
2021/03/15 07:41:42;;;;;;;12.65;6.22;;;;;;;7.44;76.51;99129.34;4996656;28;20101;-86
2021/03/15 07:44:23;;;;;;;11.98;6.18;;;;;;;7.46;75.59;99137.13;4996170;28;20050;-87
2021/03/15 07:46:56;;;;;;;24.88;7.47;;;;;;;7.49;75.49;99129.13;4996846;28;20050;-87
2021/03/15 07:49:35;;;;;;;13.50;6.90;;;;;;;7.52;75.34;99131.59;4996844;28;20050;-87
2021/03/15 07:52:06;;;;;;;12.95;5.63;;;;;;;7.56;76.33;99133.09;4997832;28;20081;-88
2021/03/15 07:54:35;;;;;;;12.23;6.22;;;;;;;7.63;76.81;99136.22;4996192;28;20058;-87
2021/03/15 07:57:25;;;;;;;16.33;5.88;;;;;;;7.65;75.97;99137.84;4996486;28;20054;-89
2021/03/15 07:59:58;;;;;;;21.90;6.30;;;;;;;7.71;75.89;99139.28;4996031;28;20556;-86
2021/03/15 08:02:27;;;;;;;18.02;5.80;;;;;;;7.77;76.28;99143.31;4997263;28;20065;-87
2021/03/15 08:04:55;;;;;;;14.00;4.80;;;;;;;7.79;76.26;99150.19;4996692;28;20125;-88
2021/03/15 08:07:26;;;;;;;13.35;4.95;;;;;;;7.85;76.19;99153.38;4997312;28;20051;-88
2021/03/15 08:09:57;;;;;;;14.25;4.82;;;;;;;7.88;76.20;99150.56;4997068;28;20520;-87
2021/03/15 08:12:28;;;;;;;9.52;4.15;;;;;;;7.91;75.82;99161.75;4995846;28;20128;-88
2021/03/15 08:15:05;;;;;;;13.55;4.15;;;;;;;7.94;75.48;99158.13;4995422;28;20046;-88
2021/03/15 08:17:35;;;;;;;17.13;4.20;;;;;;;8.01;76.15;99166.47;4997120;28;20054;-87
2021/03/15 08:20:05;;;;;;;19.75;4.35;;;;;;;8.03;75.83;99154.13;4997190;28;20385;-87
2021/03/15 08:22:43;;;;;;;12.52;3.60;;;;;;;8.04;75.20;99158.44;4996420;28;20046;-87
2021/03/15 08:25:10;;;;;;;12.60;4.00;;;;;;;8.11;76.10;99162.41;4996281;28;20134;-87
2021/03/15 08:27:42;;;;;;;15.70;4.70;;;;;;;8.14;75.73;99161.38;4998113;28;20050;-87
2021/03/15 08:30:15;;;;;;;13.80;4.05;;;;;;;8.18;75.30;99168.13;4998048;28;20050;-87
2021/03/15 08:32:43;;;;;;;11.93;3.55;;;;;;;8.23;75.72;99165.25;4997368;28;20555;-87
2021/03/15 08:35:14;;;;;;;19.60;4.30;;;;;;;8.23;75.18;99181.84;4995448;28;20053;-87
2021/03/15 08:37:55;;;;;;;13.85;3.50;;;;;;;8.25;74.51;99173.88;4996215;28;20061;-86
2021/03/15 08:40:40;;;;;;;11.52;3.42;;;;;;;8.27;74.56;99177.28;4995901;28;20540;-87
2021/03/15 08:43:19;;;;;;;15.85;3.72;;;;;;;8.29;74.40;99164.91;4996401;28;20489;-86
2021/03/15 08:46:01;;;;;;;24.20;4.00;;;;;;;8.31;74.49;99170.91;4996357;28;20046;-87
2021/03/15 08:48:33;;;;;;;15.48;4.40;;;;;;;8.38;75.08;99176.66;4995769;28;20057;-87
2021/03/15 08:51:01;;;;;;;13.95;3.22;;;;;;;8.43;76.07;99172.00;4995139;28;20050;-86
2021/03/15 08:53:36;;;;;;;12.57;3.10;;;;;;;8.45;75.10;99178.81;4995820;28;20046;-86
2021/03/15 08:56:12;;;;;;;12.98;3.53;;;;;;;8.51;74.85;99163.66;4996749;28;20126;-87
2021/03/15 08:58:46;;;;;;;13.30;3.75;;;;;;;8.55;75.64;99166.06;4995791;28;20046;-86
2021/03/15 09:01:17;;;;;;;12.15;3.70;;;;;;;8.58;74.85;99170.28;4996675;28;20128;-87
2021/03/15 09:03:47;;;;;;;16.60;2.67;;;;;;;8.60;74.66;99184.19;4996146;28;20507;-87
2021/03/15 09:06:37;;;;;;;13.98;2.75;;;;;;;8.60;74.87;99173.69;4995442;28;20051;-87
2021/03/15 09:09:05;;;;;;;12.80;2.70;;;;;;;8.59;74.62;99169.34;4996498;28;20134;-86
2021/03/15 09:11:37;;;;;;;15.52;2.90;;;;;;;8.57;74.62;99184.34;4996320;28;20089;-87
2021/03/15 09:14:25;;;;;;;17.85;2.63;;;;;;;8.53;74.09;99180.22;4994193;28;20070;-87
2021/03/15 09:16:57;;;;;;;22.17;2.88;;;;;;;8.55;74.37;99179.19;4994976;28;20061;-88
2021/03/15 09:19:24;;;;;;;11.40;2.67;;;;;;;8.54;74.57;99176.66;4994851;28;20054;-86
2021/03/15 09:21:59;;;;;;;11.77;2.40;;;;;;;8.54;74.73;99184.50;4995986;28;20097;-87
2021/03/15 09:24:44;;;;;;;13.57;2.40;;;;;;;8.47;73.52;99182.22;4993986;28;20065;-87
2021/03/15 09:27:10;;;;;;;13.95;2.85;;;;;;;8.51;74.72;99187.28;4994447;28;20062;-88
2021/03/15 09:29:38;;;;;;;9.02;2.03;;;;;;;8.48;74.76;99183.06;4994839;28;20613;-88
2021/03/15 09:32:07;;;;;;;9.10;2.50;;;;;;;8.46;74.73;99188.38;4994332;28;20493;-87
2021/03/15 09:34:34;;;;;;;17.73;3.78;;;;;;;8.44;74.96;99186.78;4995209;28;20089;-87
2021/03/15 09:37:02;;;;;;;11.63;2.40;;;;;;;8.42;74.86;99184.28;4994631;28;20386;-88
2021/03/15 09:39:30;;;;;;;13.75;2.40;;;;;;;8.42;74.97;99193.91;4995616;28;20050;-87
2021/03/15 09:41:57;;;;;;;12.45;2.17;;;;;;;8.42;74.95;99199.16;4994415;28;20065;-87
2021/03/15 09:44:32;;;;;;;12.38;2.53;;;;;;;8.38;74.18;99200.25;4992540;28;20061;-87
2021/03/15 09:46:59;;;;;;;10.73;2.75;;;;;;;8.42;75.05;99201.78;4994669;28;20068;-87
2021/03/15 09:49:39;;;;;;;7.47;1.90;;;;;;;8.38;74.25;99195.88;4993432;28;20563;-87
2021/03/15 09:52:15;;;;;;;10.50;2.60;;;;;;;8.39;74.51;99200.19;4994125;28;20524;-87
2021/03/15 09:54:44;;;;;;;13.57;3.05;;;;;;;8.41;75.23;99202.72;4994248;28;20061;-88
2021/03/15 09:57:12;;;;;;;12.45;2.88;;;;;;;8.41;76.01;99198.28;4995060;28;20054;-87
2021/03/15 09:59:40;;;;;;;15.80;3.20;;;;;;;8.43;75.52;99201.69;4994786;28;20055;-88
2021/03/15 10:02:06;;;;;;;18.40;2.42;;;;;;;8.44;75.61;99199.91;4994982;28;20057;-87
2021/03/15 10:04:38;;;;;;;8.75;2.47;;;;;;;8.44;75.10;99205.16;4993602;28;20133;-88
2021/03/15 10:07:07;;;;;;;8.65;2.30;;;;;;;8.46;75.35;99217.22;4993990;28;20051;-88
2021/03/15 10:09:38;;;;;;;12.40;2.67;;;;;;;8.48;75.30;99211.91;4993602;28;20050;-88
2021/03/15 10:12:06;;;;;;;13.02;2.42;;;;;;;8.51;75.65;99211.75;4995099;28;20050;-88
2021/03/15 10:14:33;;;;;;;15.90;2.30;;;;;;;8.53;75.70;99211.69;4993804;28;20390;-88
2021/03/15 10:17:03;;;;;;;10.50;2.10;;;;;;;8.55;75.34;99209.81;4994945;28;20042;-87
2021/03/15 10:19:32;;;;;;;8.38;2.08;;;;;;;8.59;75.89;99208.69;4993033;28;20552;-88
2021/03/15 10:22:10;;;;;;;9.90;2.28;;;;;;;8.60;75.18;99216.47;4993299;28;20061;-87
2021/03/15 10:24:38;;;;;;;7.85;1.92;;;;;;;8.68;76.21;99209.97;4993674;28;20069;-87
2021/03/15 10:27:08;;;;;;;7.68;1.70;;;;;;;8.70;75.51;99208.06;4993666;28;20054;-87
2021/03/15 10:29:35;;;;;;;10.50;2.28;;;;;;;8.73;75.36;99216.63;4992727;28;20417;-87
2021/03/15 10:32:05;;;;;;;12.48;1.92;;;;;;;8.75;75.55;99213.06;4994325;28;20054;-87
2021/03/15 10:34:32;;;;;;;12.60;3.05;;;;;;;8.78;75.34;99215.53;4993016;28;20054;-88
2021/03/15 10:36:58;;;;;;;14.38;2.28;;;;;;;8.77;74.93;99222.53;4994587;28;20042;-87
2021/03/15 10:39:26;;;;;;;13.15;2.25;;;;;;;8.76;74.88;99225.25;4992766;28;20061;-88
2021/03/15 10:41:54;;;;;;;9.95;2.35;;;;;;;8.78;75.49;99229.47;4973845;28;20421;-88
2021/03/15 10:44:22;;;;;;;12.73;2.20;;;;;;;8.81;75.71;99217.94;4973720;28;20047;-88
2021/03/15 10:46:54;;;;;;;12.05;1.85;;;;;;;8.85;75.74;99229.94;4973757;28;20086;-88
2021/03/15 10:49:23;;;;;;;11.25;1.65;;;;;;;8.89;76.09;99228.84;4975844;28;20539;-88
2021/03/15 10:51:52;;;;;;;10.68;1.90;;;;;;;8.96;76.20;99224.94;4993094;28;20108;-88
2021/03/15 10:54:26;;;;;;;11.07;2.00;;;;;;;9.03;76.49;99225.41;4992728;28;20512;-88
2021/03/15 10:57:15;;;;;;;8.52;1.70;;;;;;;9.15;75.83;99221.22;4992930;28;20061;-88
2021/03/15 10:59:43;;;;;;;3.58;1.70;;;;;;;9.35;77.88;99222.63;4993844;28;20069;-88
2021/03/15 11:02:18;;;;;;;8.70;2.00;;;;;;;9.52;78.28;99223.38;4993987;28;20046;-87
2021/03/15 11:04:51;;;;;;;6.03;2.20;;;;;;;9.71;77.36;99219.63;4993504;28;20096;-87
2021/03/15 11:07:35;;;;;;;7.97;1.45;;;;;;;9.93;76.76;99223.53;4993132;28;20051;-87
2021/03/15 11:10:06;;;;;;;4.03;1.65;;;;;;;10.15;76.14;99223.03;4994347;28;20497;-87
2021/03/15 11:12:47;;;;;;;9.90;1.90;;;;;;;10.33;74.70;99228.91;4994371;28;20061;-87
2021/03/15 11:15:18;;;;;;;9.30;1.73;;;;;;;10.46;74.41;99223.69;4992990;28;20073;-87
2021/03/15 11:18:03;;;;;;;7.32;1.90;;;;;;;10.49;71.84;99228.78;4992873;28;20138;-87
2021/03/15 11:20:44;;;;;;;11.98;1.70;;;;;;;10.59;73.31;99233.44;4993094;28;20101;-88
2021/03/15 11:23:12;;;;;;;9.52;1.85;;;;;;;10.74;76.05;99228.94;4994298;28;20084;-87
2021/03/15 11:25:39;;;;;;;5.80;1.13;;;;;;;10.92;77.12;99240.03;4992151;28;20046;-87
2021/03/15 11:28:13;;;;;;;8.43;1.50;;;;;;;11.12;74.75;99233.44;4993683;28;20583;-88
2021/03/15 11:30:41;;;;;;;9.63;1.95;;;;;;;11.40;77.05;99228.88;4994172;28;20061;-87
2021/03/15 11:33:10;;;;;;;4.35;1.52;;;;;;;11.70;78.16;99224.25;4994055;28;20086;-88
2021/03/15 11:35:40;;;;;;;8.07;1.70;;;;;;;12.08;76.94;99220.66;4992354;28;20429;-88
2021/03/15 11:38:08;;;;;;;8.32;1.65;;;;;;;12.48;77.03;99240.69;4992516;28;20509;-88
2021/03/15 11:40:36;;;;;;;8.85;1.58;;;;;;;12.85;76.64;99225.69;4992960;28;20054;-88
2021/03/15 11:43:03;;;;;;;6.53;1.77;;;;;;;13.29;78.93;99234.69;4992462;28;20054;-88
2021/03/15 11:45:31;;;;;;;6.18;1.40;;;;;;;13.81;78.30;99218.41;4992597;28;20054;-87
2021/03/15 11:47:58;;;;;;;5.20;1.23;;;;;;;14.30;75.91;99222.50;4993819;28;20051;-88
2021/03/15 11:50:27;;;;;;;5.63;1.40;;;;;;;14.67;72.39;99230.09;4992905;28;20105;-88
2021/03/15 11:52:54;;;;;;;9.43;1.58;;;;;;;14.85;68.79;99222.41;4993729;28;20062;-88
2021/03/15 11:55:21;;;;;;;7.93;1.50;;;;;;;14.87;66.60;99226.78;4992112;28;20055;-88
2021/03/15 11:57:48;;;;;;;9.32;1.50;;;;;;;14.72;65.28;99264.13;4993753;28;20061;-88